AirNav   Air Wisconsin Up To $57,000 Bonus
 
 506 users online  

T39 Archer City Municipal Airport
Archer City, Texas, USA

GOING TO ARCHER CITY?


FAA INFORMATION EFFECTIVE 11 AUGUST 2022

Location

FAA Identifier: T39
Lat/Long: 33-34-56.3740N 098-37-07.2050W
33-34.939567N 098-37.120083W
33.5823261,-98.6186681
(estimated)
Elevation: 1065 ft. / 325 m (estimated)
Variation: 07E (1985)
From city: 1 mile SE of ARCHER CITY, TX
Time zone: UTC -5 (UTC -6 during Standard Time)
Zip code: 76351

Airport Operations

Airport use: Open to the public
Activation date: 12/1977
Control tower: no
ARTCC: FORT WORTH CENTER
FSS: FORT WORTH FLIGHT SERVICE STATION
NOTAMs facility: FTW (NOTAM-D service available)
Attendance: UNATNDD
Wind indicator: lighted
Segmented circle: no

Airport Communications

CTAF: 122.9
WX AWOS-3 at CWC (18 nm N): 119.625 (940-766-2967)

Nearby radio navigation aids

VOR radial/distance  VOR name  Freq  Var
SPSr173/24.3WICHITA FALLS VORTAC112.7010E
UKWr268/40.0BOWIE VORTAC117.1506E

 
NDB name  Hdg/Dist  Freq  Var  ID
SCOTLAND204/13.734405ESKB ... -.- -...

Airport Services

Parking: tiedowns
Airframe service: MINOR
Powerplant service: MINOR
Bottled oxygen: NONE
Bulk oxygen: NONE

Runway Information

Runway 17/35

Dimensions: 3200 x 60 ft. / 975 x 18 m
Surface: asphalt/turf, in poor condition
VEGETATION GROWING THROUGH PAVEMENT. RWY MOSTLY TURF.
LOOSE GRVL, TALL GRASS AND POT HOLES ON RWY.
Weight bearing capacity: 
Single wheel: 12.5
Operational restrictions: RWY 17/35 CLSD INDEFLY; UNDER REPAIR.
RUNWAY 17  RUNWAY 35
Traffic pattern: leftleft
Markings: nonenone
Obstructions: 15 ft. road, 500 ft. from runway, 20:1 slope to clearnone

Airport Ownership and Management from official FAA records

Ownership: Privately-owned
Owner: VALTER DELLE-NEBBIA
P.O. BOX 734
ARCHER CITY, TX 76351
Phone 940-574-4990
Manager: VALTER DELLE-NEBBIA
P.O. BOX 734
ARCHER CITY, TX 76351
Phone 940-574-4990
MGR CELL 940-631-4519.

Airport Operational Statistics

Aircraft based on the field: 5
Single engine airplanes: 5
    
Aircraft operations: 200/year *
50% transient general aviation
50% local general aviation
* for 12-month period ending 16 May 2020

Additional Remarks

WILDLIFE ON AND INVOF ARPT.
FOR CD CTC FORT WORTH ARTCC AT 817-858-7584.

Instrument Procedures

There are no published instrument procedures at T39.

Some nearby airports with instrument procedures:

KONY - Olney Municipal Airport (17 nm SW)
KCWC - Kickapoo Downtown Airport (18 nm N)
F14 - Wichita Valley Airport (22 nm N)
KSPS - Sheppard Air Force Base/Wichita Falls Municipal Airport (25 nm N)
KRPH - Graham Municipal Airport (28 nm S)
 
Loc | Ops | Rwys | IFR | FBO | Links
Com | Nav | Svcs | Stats | Notes

City of Fort Worth
 
Area around T39 (Archer City Municipal Airport)
 
Road maps at: MapQuest Bing Google
 
Aerial photo
No photo
 
Sectional chart

 
Airport distance calculator
Flying to Archer City Municipal Airport? Find the distance to fly.

From to T39

Sunrise and sunset
Times for 13-Aug-2022
 Local
(UTC-5)
 Zulu
(UTC)
Morning civil twilight06:3011:30
Sunrise06:5611:56
Sunset20:2201:22
Evening civil twilight20:4901:49

Current date and time
Zulu (UTC)  13-Aug-2022 09:25:08
Local (UTC-5)  13-Aug-2022 04:25:08
 
METAR
KCWC 
18nm N 
121640Z AUTO 14004KT 10SM CLR 32/19 A3010 RMK AO2 T03210194
KSPS 
25nm N 
130852Z 16005KT 10SM CLR 24/18 A3004 RMK AO2 SLP155 T02440178 57001
KRPH 
29nm S 
130855Z AUTO VRB04KT 10SM CLR 27/19 A3003 RMK AO2 SLP764 T02690193 $
TAF
KSPS 
25nm N 
130520Z 1306/1406 11007KT P6SM SKC FM131300 15010KT P6SM SCT080
NOTAMs
Click for the latest NOTAMs
NOTAMs are issued by the DoD/FAA and will open in a separate window not controlled by AirNav.

 

 
 

Would you like to see your business listed on this page?

 If your business provides an interesting product or service to pilots, flight crews, aircraft, or users of the Archer City Municipal Airport, you should consider listing it here.  To start the listing process, click on the button below
 
Add a business
 

Other Pages about Archer City Municipal Airport

Update a link
 
Copyright © AirNav, LLC. All rights reserved. Privacy Policy  Contact